createdAt,value
2023-04-10T00:02:04.998Z,100667.11
2023-04-10T00:04:40.927Z,100662.93
2023-04-10T00:07:12.168Z,100666.19
2023-04-10T00:09:41.203Z,100668.52
2023-04-10T00:12:18.172Z,100667.48
2023-04-10T00:14:51.706Z,100672.52
2023-04-10T00:17:23.042Z,100667.19
2023-04-10T00:19:51.958Z,100667.32
2023-04-10T00:22:27.123Z,100664.48
2023-04-10T00:24:56.101Z,100667.05
2023-04-10T00:27:27.400Z,100669.75
2023-04-10T00:29:56.283Z,100668.38
2023-04-10T00:32:25.914Z,100666.42
2023-04-10T00:34:58.662Z,100666.16
2023-04-10T00:37:27.944Z,100665.49
2023-04-10T00:39:56.686Z,100663.91
2023-04-10T00:42:26.633Z,100665.82
2023-04-10T00:44:55.411Z,100664.45
2023-04-10T00:47:27.802Z,100662.79
2023-04-10T00:49:57.534Z,100661.22
2023-04-10T00:52:26.620Z,100666.14
2023-04-10T00:54:55.995Z,100666.48
2023-04-10T00:57:25.049Z,100665.19
2023-04-10T00:59:56.563Z,100665.09
2023-04-10T01:02:26.467Z,100665.73
2023-04-10T01:04:56.045Z,100667.86
2023-04-10T01:07:28.154Z,100662.38
2023-04-10T01:10:09.186Z,100665.71
2023-04-10T01:12:38.398Z,100658.65
2023-04-10T01:15:11.067Z,100657.48
2023-04-10T01:17:55.641Z,100659.20
2023-04-10T01:20:25.249Z,100658.16
2023-04-10T01:22:55.703Z,100660.77
2023-04-10T01:25:30.424Z,100661.73
2023-04-10T01:28:06.346Z,100658.40
2023-04-10T01:30:35.982Z,100658.99
2023-04-10T01:33:06.213Z,100654.21
2023-04-10T01:35:35.087Z,100656.35
2023-04-10T01:38:03.861Z,100659.76
2023-04-10T01:40:32.844Z,100655.45
2023-04-10T01:43:04.305Z,100655.94
2023-04-10T01:45:44.234Z,100654.34
2023-04-10T01:48:12.867Z,100655.07
2023-04-10T01:50:42.350Z,100655.91
2023-04-10T01:53:11.405Z,100656.33
2023-04-10T01:55:41.098Z,100657.61
2023-04-10T01:58:11.299Z,100657.44
2023-04-10T02:00:42.206Z,100661.05
2023-04-10T02:03:11.803Z,100662.20
2023-04-10T02:05:49.274Z,100662.05
2023-04-10T02:08:20.063Z,100663.58
2023-04-10T02:10:52.484Z,100666.11
2023-04-10T02:13:21.846Z,100664.83
2023-04-10T02:15:52.787Z,100667.36
2023-04-10T02:18:22.435Z,100668.35
2023-04-10T02:20:51.344Z,100665.44
2023-04-10T02:23:20.942Z,100667.60
2023-04-10T02:25:50.183Z,100665.40
2023-04-10T03:18:55.321Z,100681.36
2023-04-10T03:21:29.026Z,100684.23
2023-04-10T03:23:58.393Z,100683.95
2023-04-10T03:26:28.827Z,100685.08
2023-04-10T03:28:59.437Z,100684.86
2023-04-10T03:31:28.423Z,100688.75
2023-04-10T03:33:59.583Z,100685.61
2023-04-10T03:36:28.767Z,100688.02
2023-04-10T03:38:57.840Z,100690.81
2023-04-10T03:41:27.664Z,100686.94
2023-04-10T03:43:57.184Z,100684.05
2023-04-10T03:46:26.496Z,100683.65
2023-04-10T03:48:55.771Z,100687.80
2023-04-10T03:51:25.020Z,100685.40
2023-04-10T03:53:54.256Z,100687.63
2023-04-10T03:56:23.919Z,100688.27
2023-04-10T03:58:55.865Z,100686.14
2023-04-10T04:01:26.714Z,100688.94
2023-04-10T04:04:02.362Z,100692.98
2023-04-10T04:06:52.983Z,100695.30
2023-04-10T04:09:48.390Z,100694.31
2023-04-10T04:12:42.607Z,100700.27
2023-04-10T04:15:25.451Z,100700.80
2023-04-10T04:18:16.939Z,100703.52
2023-04-10T04:20:53.505Z,100703.58
2023-04-10T04:23:43.695Z,100705.02
2023-04-10T04:26:25.503Z,100710.23
2023-04-10T04:29:17.204Z,100709.21
2023-04-10T04:32:02.432Z,100709.27
2023-04-10T04:34:56.935Z,100711.31
2023-04-10T04:37:53.498Z,100713.01
2023-04-10T04:40:49.703Z,100714.04
2023-04-10T04:43:49.827Z,100710.63
2023-04-10T04:46:37.807Z,100717.27
2023-04-10T04:49:25.261Z,100717.27
2023-04-10T04:52:24.199Z,100718.84
2023-04-10T04:55:12.066Z,100721.14
2023-04-10T04:58:04.525Z,100725.13
2023-04-10T05:00:48.830Z,100727.50
2023-04-10T05:03:48.058Z,100728.15
2023-04-10T05:06:36.454Z,100730.66
2023-04-10T05:09:44.223Z,100732.19
2023-04-10T05:12:34.895Z,100731.54
2023-04-10T05:15:40.241Z,100730.61
2023-04-10T05:18:24.066Z,100733.54
2023-04-10T05:21:05.675Z,100736.91
2023-04-10T05:24:02.276Z,100741.35
2023-04-10T05:26:52.167Z,100739.59
2023-04-10T05:29:47.356Z,100743.46
2023-04-10T05:32:35.436Z,100745.97
2023-04-10T05:35:24.148Z,100744.76
2023-04-10T05:38:04.653Z,100743.20
2023-04-10T05:40:56.995Z,100747.02
2023-04-10T05:43:58.111Z,100746.30
2023-04-10T05:46:48.572Z,100748.58
2023-04-10T05:49:29.482Z,100749.20
2023-04-10T05:52:10.702Z,100754.17
2023-04-10T05:54:52.700Z,100751.45
2023-04-10T05:57:56.564Z,100753.20
2023-04-10T06:00:35.477Z,100756.48
2023-04-10T06:03:24.569Z,100755.92
2023-04-10T06:05:58.337Z,100752.75
2023-04-10T06:08:27.855Z,100753.84
2023-04-10T06:10:58.213Z,100755.58
2023-04-10T06:13:28.058Z,100750.13
2023-04-10T06:16:01.600Z,100751.34
2023-04-10T06:18:31.639Z,100753.92
2023-04-10T06:21:02.562Z,100758.54
2023-04-10T06:23:45.788Z,100765.04
2023-04-10T06:26:16.030Z,100766.17
2023-04-10T06:28:45.545Z,100764.94
2023-04-10T06:31:22.662Z,100766.05
2023-04-10T06:33:52.641Z,100769.23
2023-04-10T06:36:22.373Z,100764.85
2023-04-10T06:39:00.140Z,100766.61
2023-04-10T06:41:30.356Z,100768.08
2023-04-10T06:44:09.604Z,100762.36
2023-04-10T06:46:39.452Z,100759.41
2023-04-10T06:49:08.788Z,100763.35
2023-04-10T06:51:38.566Z,100764.55
2023-04-10T06:54:07.585Z,100766.71
2023-04-10T06:56:36.918Z,100770.73
2023-04-10T06:59:07.115Z,100770.88
2023-04-10T07:01:37.102Z,100777.92
2023-04-10T07:04:06.337Z,100777.58
2023-04-10T07:06:40.272Z,100776.46
2023-04-10T07:09:11.137Z,100773.48
2023-04-10T07:11:40.648Z,100777.89
2023-04-10T07:14:09.624Z,100783.62
2023-04-10T07:16:38.731Z,100785.42
2023-04-10T07:19:09.351Z,100783.32
2023-04-10T07:21:38.615Z,100787.73
2023-04-10T07:24:10.133Z,100788.58
2023-04-10T07:26:40.087Z,100790.48
2023-04-10T07:29:09.985Z,100788.44
2023-04-10T07:31:41.247Z,100795.39
2023-04-10T07:34:13.406Z,100793.80
2023-04-10T07:36:43.940Z,100798.35
2023-04-10T07:39:14.981Z,100794.13
2023-04-10T07:41:44.427Z,100791.66
2023-04-10T07:44:20.957Z,100798.83
2023-04-10T07:46:51.060Z,100799.20
2023-04-10T07:49:20.331Z,100799.83
2023-04-10T07:51:49.409Z,100798.73
2023-04-10T07:54:18.902Z,100797.59
2023-04-10T07:56:47.983Z,100801.34
2023-04-10T07:59:17.083Z,100805.55
2023-04-10T08:01:46.419Z,100804.48
2023-04-10T08:04:16.863Z,100806.93
2023-04-10T08:06:46.572Z,100806.45
2023-04-10T08:09:16.088Z,100805.83
2023-04-10T08:11:48.236Z,100799.65
2023-04-10T08:14:18.256Z,100797.55
2023-04-10T08:16:55.137Z,100795.86
2023-04-10T08:19:25.044Z,100804.09
2023-04-10T08:21:54.222Z,100806.02
2023-04-10T08:24:26.760Z,100809.59
2023-04-10T08:27:16.820Z,100808.90
2023-04-10T08:29:47.164Z,100808.79
2023-04-10T08:32:16.364Z,100811.56
2023-04-10T08:34:45.607Z,100807.02
2023-04-10T08:37:16.681Z,100806.70
2023-04-10T08:39:46.286Z,100808.42
2023-04-10T08:42:22.876Z,100801.05
2023-04-10T08:44:54.313Z,100798.77
2023-04-10T08:47:23.251Z,100799.38
2023-04-10T08:49:56.985Z,100794.91
2023-04-10T08:52:26.616Z,100800.71
2023-04-10T08:54:56.742Z,100799.96
2023-04-10T08:57:27.417Z,100798.44
2023-04-10T08:59:56.480Z,100798.52
2023-04-10T09:02:27.133Z,100799.11
2023-04-10T09:04:56.321Z,100804.73
2023-04-10T09:07:25.423Z,100806.52
2023-04-10T09:10:01.516Z,100805.27
2023-04-10T09:12:35.114Z,100806.28
2023-04-10T09:15:04.477Z,100809.59
2023-04-10T09:17:34.338Z,100807.51
2023-04-10T09:20:04.204Z,100809.04
2023-04-10T09:22:36.918Z,100812.48
2023-04-10T09:25:36.216Z,100807.66
2023-04-10T09:28:10.359Z,100810.98
2023-04-10T09:30:41.227Z,100812.16
2023-04-10T09:33:30.702Z,100806.90
2023-04-10T09:36:04.721Z,100812.18
2023-04-10T09:38:35.274Z,100816.20
2023-04-10T09:41:09.004Z,100817.35
2023-04-10T09:43:39.662Z,100821.54
2023-04-10T09:46:29.317Z,100818.86
2023-04-10T09:48:59.916Z,100819.58
2023-04-10T09:51:31.614Z,100817.23
2023-04-10T09:54:01.458Z,100819.98
2023-04-10T09:56:31.072Z,100817.77
2023-04-10T09:59:01.726Z,100816.44
2023-04-10T10:01:35.282Z,100815.17
2023-04-10T10:04:05.057Z,100816.30
2023-04-10T10:06:35.110Z,100817.63
2023-04-10T10:09:06.750Z,100817.65
2023-04-10T10:11:36.233Z,100820.14
2023-04-10T10:14:09.950Z,100814.75
2023-04-10T10:16:44.715Z,100812.73
2023-04-10T10:19:53.457Z,100811.38
2023-04-10T10:22:26.585Z,100809.77
2023-04-10T10:24:57.404Z,100804.80
2023-04-10T10:27:27.948Z,100803.82
2023-04-10T10:30:20.250Z,100807.20
2023-04-10T10:32:55.013Z,100800.73
2023-04-10T10:35:27.965Z,100801.79
2023-04-10T10:38:05.036Z,100799.58
2023-04-10T10:40:39.489Z,100800.98
2023-04-10T10:43:12.729Z,100798.27
2023-04-10T10:45:47.577Z,100792.00
2023-04-10T10:48:17.234Z,100793.44
2023-04-10T10:50:58.625Z,100795.91
2023-04-10T10:53:44.527Z,100789.80
2023-04-10T10:56:24.469Z,100793.43
2023-04-10T10:58:57.969Z,100797.12
2023-04-10T11:01:27.908Z,100796.95
2023-04-10T11:04:00.540Z,100794.20
2023-04-10T11:06:59.207Z,100788.40
2023-04-10T11:09:52.287Z,100797.02
2023-04-10T11:12:24.050Z,100796.60
2023-04-10T11:15:00.450Z,100790.20
2023-04-10T11:17:52.853Z,100795.83
2023-04-10T11:20:29.202Z,100783.85
2023-04-10T11:23:08.897Z,100788.48
2023-04-10T11:25:54.365Z,100786.60
2023-04-10T11:28:36.909Z,100785.41
2023-04-10T11:31:23.076Z,100778.81
2023-04-10T11:34:01.840Z,100779.09
2023-04-10T11:36:31.216Z,100774.52
2023-04-10T11:39:03.245Z,100765.09
2023-04-10T11:41:33.820Z,100766.16
2023-04-10T11:44:04.486Z,100765.84
2023-04-10T11:46:37.496Z,100762.88
2023-04-10T11:49:07.534Z,100759.98
2023-04-10T11:51:41.189Z,100756.61
2023-04-10T11:54:15.094Z,100752.08
2023-04-10T11:56:47.696Z,100750.24
2023-04-10T11:59:20.149Z,100747.23
2023-04-10T12:01:49.409Z,100745.34
2023-04-10T12:04:19.269Z,100741.13
2023-04-10T12:06:52.957Z,100739.73
2023-04-10T12:09:21.733Z,100740.52
2023-04-10T12:11:53.372Z,100737.58
2023-04-10T12:14:24.608Z,100734.58
2023-04-10T12:16:54.350Z,100733.68
2023-04-10T12:19:24.027Z,100732.92
2023-04-10T12:21:52.871Z,100730.05
2023-04-10T12:24:41.880Z,100731.13
2023-04-10T12:27:23.877Z,100731.41
2023-04-10T12:29:54.027Z,100725.40
2023-04-10T12:32:23.319Z,100723.05
2023-04-10T12:35:01.701Z,100718.67
2023-04-10T12:38:06.991Z,100709.13
2023-04-10T12:40:38.823Z,100712.52
2023-04-10T12:43:07.821Z,100708.73
2023-04-10T12:45:44.892Z,100710.15
2023-04-10T12:48:14.091Z,100710.77
2023-04-10T12:50:48.328Z,100699.58
2023-04-10T12:53:17.485Z,100697.52
2023-04-10T12:55:59.783Z,100695.49
2023-04-10T12:58:31.543Z,100692.54
2023-04-10T13:01:06.328Z,100683.77
2023-04-10T13:03:36.956Z,100688.84
2023-04-10T13:06:08.371Z,100690.05
2023-04-10T13:08:37.507Z,100685.26
2023-04-10T13:11:08.761Z,100681.70
2023-04-10T13:13:39.566Z,100683.57
2023-04-10T13:16:13.033Z,100677.73
2023-04-10T13:18:42.573Z,100676.43
2023-04-10T13:21:11.531Z,100683.25
2023-04-10T13:23:42.905Z,100675.19
2023-04-10T13:26:11.944Z,100673.88
2023-04-10T13:28:40.807Z,100671.32
2023-04-10T13:31:09.892Z,100678.10
2023-04-10T13:33:38.993Z,100671.38
2023-04-10T13:36:10.050Z,100672.95
2023-04-10T13:38:38.973Z,100670.23
2023-04-10T13:41:07.864Z,100669.66
2023-04-10T13:43:37.906Z,100663.45
2023-04-10T13:46:06.974Z,100658.65
2023-04-10T13:48:41.616Z,100660.83
2023-04-10T13:51:10.745Z,100657.44
2023-04-10T13:53:42.571Z,100659.92
2023-04-10T13:56:11.739Z,100659.81
2023-04-10T13:58:40.511Z,100661.82
2023-04-10T14:01:12.883Z,100659.91
2023-04-10T14:03:42.804Z,100661.06
2023-04-10T14:06:11.856Z,100658.44
2023-04-10T14:08:41.897Z,100657.69
2023-04-10T14:11:10.967Z,100655.23
2023-04-10T14:13:39.836Z,100653.02
2023-04-10T14:16:08.934Z,100648.58
2023-04-10T14:18:37.844Z,100648.00
2023-04-10T14:21:09.438Z,100646.36
2023-04-10T14:23:41.498Z,100644.94
2023-04-10T14:26:10.325Z,100649.23
2023-04-10T14:28:39.688Z,100643.59
2023-04-10T14:31:08.633Z,100638.12
2023-04-10T14:33:38.803Z,100636.45
2023-04-10T14:36:08.528Z,100638.40
2023-04-10T14:38:37.331Z,100634.25
2023-04-10T14:41:06.624Z,100635.61
2023-04-10T14:43:35.347Z,100632.84
2023-04-10T14:46:04.752Z,100632.17
2023-04-10T14:48:33.933Z,100625.37
2023-04-10T14:51:04.929Z,100623.89
2023-04-10T14:53:36.081Z,100623.76
2023-04-10T14:56:11.599Z,100620.69
2023-04-10T14:58:41.118Z,100620.88
2023-04-10T15:01:13.573Z,100617.31
2023-04-10T15:03:42.961Z,100612.38
2023-04-10T15:06:12.781Z,100612.68
2023-04-10T15:08:41.659Z,100610.67
2023-04-10T15:11:10.534Z,100610.54
2023-04-10T15:13:40.725Z,100605.23
2023-04-10T15:16:09.497Z,100604.05
2023-04-10T15:18:38.226Z,100600.68
2023-04-10T15:21:08.311Z,100602.08
2023-04-10T15:23:37.057Z,100603.27
2023-04-10T15:26:06.068Z,100602.63
2023-04-10T15:28:37.312Z,100602.41
2023-04-10T15:31:06.514Z,100605.08
2023-04-10T15:33:52.483Z,100596.17
2023-04-10T15:36:22.937Z,100592.52
2023-04-10T15:38:59.085Z,100587.51
2023-04-10T15:41:28.495Z,100586.35
2023-04-10T15:43:57.727Z,100584.95
2023-04-10T15:46:27.411Z,100583.41
2023-04-10T15:48:56.416Z,100588.33
2023-04-10T15:51:27.483Z,100590.69
2023-04-10T15:53:56.530Z,100587.65
2023-04-10T15:56:25.784Z,100585.27
2023-04-10T15:58:56.658Z,100585.91
2023-04-10T16:01:26.143Z,100585.10
2023-04-10T16:04:04.700Z,100582.44
2023-04-10T16:06:34.505Z,100578.55
2023-04-10T16:09:07.828Z,100575.87
2023-04-10T16:11:42.062Z,100573.95
2023-04-10T16:14:11.244Z,100577.23
2023-04-10T16:16:40.318Z,100571.23
2023-04-10T16:19:10.290Z,100570.51
2023-04-10T16:21:39.913Z,100575.27
2023-04-10T16:24:08.988Z,100574.80
2023-04-10T16:26:43.709Z,100575.27
2023-04-10T16:29:12.751Z,100578.41
2023-04-10T16:31:41.791Z,100577.30
2023-04-10T16:34:10.758Z,100574.17
2023-04-10T16:36:40.524Z,100580.58
2023-04-10T16:39:09.447Z,100580.48
2023-04-10T16:41:38.853Z,100583.48
2023-04-10T16:44:07.822Z,100584.69
2023-04-10T16:46:36.978Z,100588.94
2023-04-10T16:49:06.052Z,100590.16
2023-04-10T16:51:34.903Z,100594.20
2023-04-10T16:54:04.390Z,100597.48
2023-04-10T16:56:33.757Z,100592.80
2023-04-10T16:59:05.287Z,100593.88
2023-04-10T17:01:40.048Z,100597.45
2023-04-10T17:04:09.699Z,100597.85
2023-04-10T17:06:40.547Z,100594.83
2023-04-10T17:09:09.972Z,100595.48
2023-04-10T17:11:39.204Z,100595.58
2023-04-10T17:14:08.540Z,100596.20
2023-04-10T17:16:37.604Z,100601.17
2023-04-10T17:19:06.860Z,100595.71
2023-04-10T17:21:36.164Z,100598.46
2023-04-10T17:24:10.702Z,100601.31
2023-04-10T17:26:40.421Z,100603.41
2023-04-10T17:29:09.383Z,100606.65
2023-04-10T17:31:38.505Z,100605.75
2023-04-10T17:34:07.649Z,100608.65
2023-04-10T17:36:39.230Z,100605.80
2023-04-10T17:39:08.018Z,100611.92
2023-04-10T17:41:37.065Z,100607.52
2023-04-10T17:44:06.612Z,100608.11
2023-04-10T17:46:35.710Z,100606.61
2023-04-10T17:49:07.428Z,100607.84
2023-04-10T17:51:40.523Z,100609.83
2023-04-10T17:54:09.628Z,100611.23
2023-04-10T17:56:38.849Z,100610.38
2023-04-10T17:59:11.626Z,100609.26
2023-04-10T18:01:41.238Z,100613.81
2023-04-10T18:04:10.411Z,100615.19
2023-04-10T18:06:41.224Z,100613.29
2023-04-10T18:09:10.042Z,100612.67
2023-04-10T18:11:40.355Z,100613.42
2023-04-10T18:14:18.649Z,100612.59
2023-04-10T18:16:49.297Z,100614.96
2023-04-10T18:19:18.089Z,100612.08
2023-04-10T18:21:50.544Z,100615.40
2023-04-10T18:24:19.276Z,100615.30
2023-04-10T18:26:49.677Z,100617.77
2023-04-10T18:29:18.488Z,100622.17
2023-04-10T18:31:48.120Z,100621.38
2023-04-10T18:34:16.999Z,100620.86
2023-04-10T18:36:47.003Z,100623.95
2023-04-10T18:39:15.792Z,100623.41
2023-04-10T18:41:45.700Z,100625.06
2023-04-10T18:44:14.572Z,100624.29
2023-04-10T18:46:48.624Z,100620.41
2023-04-10T18:49:22.861Z,100623.55
2023-04-10T18:51:51.854Z,100622.20
2023-04-10T18:54:20.807Z,100622.66
2023-04-10T18:56:49.708Z,100622.33
2023-04-10T18:59:18.717Z,100627.66
2023-04-10T19:01:48.423Z,100627.02
2023-04-10T19:04:17.392Z,100629.26
2023-04-10T19:06:47.260Z,100632.52
2023-04-10T19:09:16.012Z,100631.23
2023-04-10T19:11:45.096Z,100636.09
2023-04-10T19:14:15.864Z,100634.86
2023-04-10T19:16:44.910Z,100639.09
2023-04-10T19:19:14.220Z,100636.25
2023-04-10T19:21:51.154Z,100631.44
2023-04-10T19:24:20.037Z,100635.52
2023-04-10T19:26:48.907Z,100634.31
2023-04-10T19:29:21.858Z,100634.89
2023-04-10T19:31:51.733Z,100634.63
2023-04-10T19:34:21.961Z,100634.95
2023-04-10T19:36:51.549Z,100633.91
2023-04-10T19:39:20.425Z,100629.92
2023-04-10T19:41:49.321Z,100625.50
2023-04-10T19:44:18.698Z,100628.39
2023-04-10T19:46:55.196Z,100628.15
2023-04-10T19:49:27.216Z,100627.13
2023-04-10T19:51:57.873Z,100629.87
2023-04-10T19:54:26.544Z,100628.50
2023-04-10T19:56:57.988Z,100623.39
2023-04-10T19:59:27.041Z,100617.78
2023-04-10T20:01:56.694Z,100616.38
2023-04-10T20:04:25.832Z,100612.84
2023-04-10T20:06:58.276Z,100610.57
2023-04-10T20:09:27.255Z,100613.35
2023-04-10T20:11:57.694Z,100613.02
2023-04-10T20:14:30.227Z,100612.73
2023-04-10T20:16:59.669Z,100612.55
2023-04-10T20:19:28.580Z,100612.03
2023-04-10T20:22:01.522Z,100613.48
2023-04-10T20:24:31.588Z,100615.14
2023-04-10T20:27:00.503Z,100615.48
2023-04-10T20:29:29.650Z,100612.02
2023-04-10T20:31:58.652Z,100609.69
2023-04-10T20:34:28.211Z,100616.23
2023-04-10T20:36:58.317Z,100616.11
2023-04-10T20:39:27.291Z,100614.55
2023-04-10T20:41:57.474Z,100611.40
2023-04-10T20:44:27.322Z,100611.13
2023-04-10T20:46:56.347Z,100607.64
2023-04-10T20:49:25.555Z,100607.56
2023-04-10T20:51:54.355Z,100610.52
2023-04-10T20:54:24.371Z,100611.95
2023-04-10T20:56:54.224Z,100611.58
2023-04-10T20:59:23.175Z,100610.42
2023-04-10T21:01:53.091Z,100606.58
2023-04-10T21:04:22.803Z,100608.30
2023-04-10T21:06:51.849Z,100607.08
2023-04-10T21:09:22.244Z,100601.92
2023-04-10T21:11:51.225Z,100600.13
2023-04-10T21:14:20.300Z,100596.63
2023-04-10T21:16:49.899Z,100595.89
2023-04-10T21:19:19.219Z,100596.55
2023-04-10T21:21:51.608Z,100598.89
2023-04-10T21:24:20.506Z,100596.75
2023-04-10T21:26:49.612Z,100599.73
2023-04-10T21:29:19.312Z,100598.16
2023-04-10T21:31:50.470Z,100598.63
2023-04-10T21:34:28.578Z,100592.41
2023-04-10T21:36:57.746Z,100597.63
2023-04-10T21:39:26.844Z,100596.53
2023-04-10T21:41:55.860Z,100601.96
2023-04-10T21:44:24.760Z,100597.27
2023-04-10T21:46:54.424Z,100599.54
2023-04-10T21:49:23.804Z,100598.59
2023-04-10T21:51:53.014Z,100601.03
2023-04-10T21:54:22.152Z,100594.80
2023-04-10T21:56:51.327Z,100594.48
2023-04-10T21:59:21.317Z,100593.11
2023-04-10T22:01:50.614Z,100596.15
2023-04-10T22:04:19.830Z,100590.67
2023-04-10T22:06:49.076Z,100587.92
2023-04-10T22:09:18.381Z,100584.98
2023-04-10T22:11:47.305Z,100585.98
2023-04-10T22:14:20.767Z,100580.50
2023-04-10T22:16:50.766Z,100578.67
2023-04-10T22:19:20.120Z,100575.94
2023-04-10T22:21:52.505Z,100577.49
2023-04-10T22:24:21.569Z,100580.04
2023-04-10T22:26:50.498Z,100577.72
2023-04-10T22:29:19.739Z,100573.46
2023-04-10T22:31:49.163Z,100574.37
2023-04-10T22:34:18.209Z,100572.54
2023-04-10T22:36:47.257Z,100573.04
2023-04-10T22:39:16.279Z,100572.95
2023-04-10T22:41:45.756Z,100571.88
2023-04-10T22:44:15.493Z,100567.39
2023-04-10T22:46:49.793Z,100565.30
2023-04-10T22:49:20.035Z,100566.13
2023-04-10T22:51:49.325Z,100562.56
2023-04-10T22:54:18.646Z,100558.20
2023-04-10T22:56:49.241Z,100560.52
2023-04-10T22:59:19.258Z,100553.81
2023-04-10T23:01:48.330Z,100559.19
2023-04-10T23:04:17.492Z,100554.91
2023-04-10T23:06:47.228Z,100553.00
2023-04-10T23:09:17.084Z,100548.50
2023-04-10T23:11:48.252Z,100543.83
2023-04-10T23:14:17.708Z,100540.88
2023-04-10T23:16:47.679Z,100537.72
2023-04-10T23:19:16.500Z,100535.48
2023-04-10T23:21:45.961Z,100536.81
2023-04-10T23:24:15.891Z,100538.16
2023-04-10T23:26:44.774Z,100539.48
2023-04-10T23:29:15.803Z,100536.70
2023-04-10T23:31:44.914Z,100537.80
2023-04-10T23:34:22.765Z,100534.56
2023-04-10T23:36:51.848Z,100530.14
2023-04-10T23:39:20.720Z,100525.80
2023-04-10T23:41:57.539Z,100524.35
2023-04-10T23:44:26.736Z,100520.16
2023-04-10T23:46:56.530Z,100515.73
2023-04-10T23:49:25.804Z,100512.51
2023-04-10T23:51:55.091Z,100507.62
2023-04-10T23:54:33.324Z,100510.78
2023-04-10T23:57:03.017Z,100508.89
2023-04-10T23:59:32.230Z,100509.00
